Time;durP1;ratioP1;P1;durP2;ratioP2;P2;SDS_P1;SDS_P2;PMS_P1;PMS_P2;Temp;Humidity;BMP_temperature;BMP_pressure;BME280_temperature;BME280_humidity;BME280_pressure;Samples;Min_cycle;Max_cycle;Signal;HPM_P1;HPM_P2
2022/11/10 00:03:12;;;;;;;20.03;14.43;;;10.60;99.90;;;;;;8320935;28;20189;-72
2022/11/10 00:07:13;;;;;;;21.10;13.87;;;10.50;99.90;;;;;;8308540;28;20308;-73
2022/11/10 00:11:14;;;;;;;19.17;13.03;;;10.50;99.90;;;;;;8314526;28;20189;-72
2022/11/10 00:19:34;;;;;;;21.70;14.03;;;10.40;99.90;;;;;;8313237;28;20204;-71
2022/11/10 00:23:35;;;;;;;18.67;12.93;;;10.40;99.90;;;;;;8298915;28;20712;-72
2022/11/10 00:27:36;;;;;;;18.43;13.57;;;10.40;99.90;;;;;;8312667;28;20217;-71
2022/11/10 00:31:38;;;;;;;18.80;13.17;;;10.40;99.90;;;;;;8311052;28;20209;-71
2022/11/10 00:35:39;;;;;;;18.43;12.33;;;10.50;99.90;;;;;;8308656;28;20212;-72
2022/11/10 00:39:40;;;;;;;19.83;13.20;;;10.40;99.90;;;;;;8310567;28;20193;-70
2022/11/10 00:43:40;;;;;;;19.97;14.27;;;10.40;99.90;;;;;;8314901;28;20296;-72
2022/11/10 00:47:41;;;;;;;19.17;13.37;;;10.40;99.90;;;;;;8320598;28;20224;-71
2022/11/10 00:51:42;;;;;;;20.27;13.47;;;10.40;99.90;;;;;;8321238;28;20190;-71
2022/11/10 00:55:43;;;;;;;19.53;13.00;;;10.40;99.90;;;;;;8321968;28;21572;-71
2022/11/10 00:59:44;;;;;;;20.77;13.30;;;10.30;99.90;;;;;;8312506;28;20213;-71
2022/11/10 01:03:45;;;;;;;19.60;13.97;;;10.40;99.90;;;;;;8315788;28;20196;-69
2022/11/10 01:07:45;;;;;;;22.57;14.93;;;10.30;99.90;;;;;;8317839;28;20210;-71
2022/11/10 01:11:46;;;;;;;18.17;13.23;;;10.30;99.90;;;;;;8317093;28;20503;-71
2022/11/10 01:15:47;;;;;;;21.43;14.03;;;10.30;99.90;;;;;;8320061;28;20185;-70
2022/11/10 01:19:48;;;;;;;21.93;14.23;;;10.30;99.90;;;;;;8317441;28;20189;-71
2022/11/10 01:23:49;;;;;;;19.57;13.17;;;10.30;99.90;;;;;;8320856;28;20200;-70
2022/11/10 01:27:51;;;;;;;18.40;12.93;;;10.30;99.90;;;;;;8318647;28;20229;-71
2022/11/10 01:31:51;;;;;;;19.20;13.00;;;10.30;99.90;;;;;;8321878;28;20193;-71
2022/11/10 01:35:52;;;;;;;16.47;11.83;;;10.30;99.90;;;;;;8319803;28;20303;-70
2022/11/10 01:39:53;;;;;;;20.60;12.87;;;10.30;99.90;;;;;;8321858;28;20216;-71
2022/11/10 01:44:16;;;;;;;16.60;11.47;;;10.30;99.90;;;;;;8319107;28;20201;-71
2022/11/10 01:48:25;;;;;;;16.23;12.90;;;10.30;99.90;;;;;;8306311;28;20469;-72
2022/11/10 01:52:26;;;;;;;16.60;12.03;;;10.30;99.90;;;;;;8317963;28;20196;-71
2022/11/10 01:56:30;;;;;;;22.40;12.70;;;10.30;99.90;;;;;;8318545;28;20193;-72
2022/11/10 02:00:31;;;;;;;18.53;11.97;;;10.30;99.90;;;;;;8318593;28;20186;-72
2022/11/10 02:04:33;;;;;;;17.93;11.67;;;10.30;99.90;;;;;;8319962;28;20200;-72
2022/11/10 02:08:35;;;;;;;15.73;11.03;;;10.30;99.90;;;;;;8317647;28;20312;-72
2022/11/10 02:12:36;;;;;;;16.40;10.73;;;10.30;99.90;;;;;;8321712;28;20192;-72
2022/11/10 02:16:38;;;;;;;15.33;10.67;;;10.30;99.90;;;;;;8315391;28;20191;-71
2022/11/10 02:20:43;;;;;;;13.70;10.00;;;10.30;99.90;;;;;;8317453;28;20204;-71
2022/11/10 02:24:44;;;;;;;14.00;10.70;;;10.20;99.90;;;;;;8334517;28;20200;-72
2022/11/10 02:28:45;;;;;;;14.90;10.33;;;10.10;99.90;;;;;;8317905;28;20213;-71
2022/11/10 02:32:46;;;;;;;14.70;9.53;;;10.10;99.90;;;;;;8318408;28;20274;-71
2022/11/10 02:36:46;;;;;;;15.33;9.67;;;10.00;99.90;;;;;;8317871;28;20197;-71
2022/11/10 02:40:50;;;;;;;17.83;10.33;;;10.00;99.90;;;;;;8319518;28;20173;-71
2022/11/10 02:44:51;;;;;;;13.80;9.33;;;9.90;99.90;;;;;;8315346;28;20276;-71
2022/11/10 02:48:52;;;;;;;12.13;8.70;;;9.90;99.90;;;;;;8318317;28;20212;-72
2022/11/10 02:52:53;;;;;;;11.83;7.83;;;9.90;99.90;;;;;;8319930;28;20201;-73
2022/11/10 02:56:54;;;;;;;10.50;7.63;;;9.80;99.90;;;;;;8319811;28;20213;-70
2022/11/10 03:00:55;;;;;;;10.83;7.70;;;9.80;99.90;;;;;;8318530;28;20213;-72
2022/11/10 03:04:55;;;;;;;11.47;7.67;;;9.80;99.90;;;;;;8316102;28;20184;-71
2022/11/10 03:08:56;;;;;;;12.67;8.20;;;9.80;99.90;;;;;;8314974;28;20259;-71
2022/11/10 03:13:00;;;;;;;9.37;6.63;;;9.80;99.90;;;;;;8311603;28;20260;-71
2022/11/10 03:17:01;;;;;;;9.30;6.67;;;9.70;99.90;;;;;;8302851;28;20190;-72
2022/11/10 03:21:02;;;;;;;9.83;6.67;;;9.70;99.90;;;;;;8307680;28;20234;-71
2022/11/10 03:25:04;;;;;;;10.13;6.97;;;9.70;99.90;;;;;;8313280;28;20184;-71
2022/11/10 03:29:05;;;;;;;8.33;6.23;;;9.60;99.90;;;;;;8315787;28;20224;-71
2022/11/10 03:33:05;;;;;;;9.90;7.67;;;9.60;99.90;;;;;;8315151;28;20177;-70
2022/11/10 03:37:06;;;;;;;10.20;6.70;;;9.60;99.90;;;;;;8314875;28;20204;-70
2022/11/10 03:41:07;;;;;;;10.27;6.90;;;9.60;99.90;;;;;;8315303;28;20191;-71
2022/11/10 03:45:09;;;;;;;8.67;6.37;;;9.60;99.90;;;;;;8315688;28;20195;-71
2022/11/10 03:49:10;;;;;;;10.83;7.60;;;9.50;99.90;;;;;;8313984;28;20267;-71
2022/11/10 03:53:11;;;;;;;10.07;7.57;;;9.50;99.90;;;;;;8314328;28;20247;-71
2022/11/10 03:57:12;;;;;;;9.33;7.00;;;9.40;99.90;;;;;;8313732;28;20208;-70
2022/11/10 04:01:13;;;;;;;9.93;6.93;;;9.40;99.90;;;;;;8312204;28;20179;-70
2022/11/10 04:09:33;;;;;;;9.63;7.50;;;9.40;99.90;;;;;;8314853;28;20305;-70
2022/11/10 04:17:53;;;;;;;8.70;6.33;;;9.30;99.90;;;;;;8315581;28;20265;-70
2022/11/10 04:21:54;;;;;;;9.07;6.87;;;9.30;99.90;;;;;;8316377;28;20185;-71
2022/11/10 04:30:26;;;;;;;8.07;6.20;;;9.20;99.90;;;;;;8317569;28;20194;-72
2022/11/10 04:34:27;;;;;;;9.80;6.73;;;9.10;99.90;;;;;;8313179;28;20183;-71
2022/11/10 04:38:28;;;;;;;9.03;7.03;;;9.10;99.90;;;;;;8314402;28;20191;-71
2022/11/10 04:42:28;;;;;;;10.07;7.30;;;9.10;99.90;;;;;;8319391;28;20187;-71
2022/11/10 04:46:32;;;;;;;8.83;5.97;;;9.00;99.90;;;;;;8314403;28;20184;-70
2022/11/10 04:50:33;;;;;;;8.90;6.80;;;8.90;99.90;;;;;;8314465;28;20209;-71
2022/11/10 04:54:34;;;;;;;10.50;6.90;;;8.80;99.90;;;;;;8312841;28;20179;-71
2022/11/10 04:58:35;;;;;;;10.53;6.40;;;8.80;99.90;;;;;;8320349;28;20202;-69
2022/11/10 05:02:36;;;;;;;7.90;5.87;;;8.80;99.90;;;;;;8318112;28;20191;-71
2022/11/10 05:06:37;;;;;;;8.80;6.23;;;8.70;99.90;;;;;;8313136;28;20248;-70
2022/11/10 05:10:38;;;;;;;7.90;6.30;;;8.60;99.90;;;;;;8318240;28;20182;-71
2022/11/10 05:14:39;;;;;;;10.07;7.60;;;8.50;99.90;;;;;;8313112;28;20182;-70
2022/11/10 05:18:40;;;;;;;8.80;6.13;;;8.40;99.90;;;;;;8317318;28;20182;-70
2022/11/10 05:23:36;;;;;;;7.93;6.00;;;8.40;99.90;;;;;;8316515;28;20305;-71
2022/11/10 05:27:07;;;;;;;9.70;6.77;;;8.40;99.90;;;;;;8315875;28;20564;-72
2022/11/10 05:31:09;;;;;;;12.70;7.37;;;8.30;99.90;;;;;;8315471;28;20386;-71
2022/11/10 05:35:09;;;;;;;10.80;7.30;;;8.30;99.90;;;;;;8317871;28;20234;-70
2022/11/10 05:39:10;;;;;;;14.33;7.20;;;8.30;99.90;;;;;;8321646;28;20659;-71
2022/11/10 05:43:11;;;;;;;9.50;6.87;;;8.20;99.90;;;;;;8321480;28;20361;-70
2022/11/10 05:47:12;;;;;;;9.23;6.73;;;8.30;99.90;;;;;;8319574;28;20202;-71
2022/11/10 05:51:13;;;;;;;12.67;7.73;;;8.30;99.90;;;;;;8320726;28;20251;-71
2022/11/10 05:55:15;;;;;;;9.87;7.57;;;8.30;99.90;;;;;;8319720;28;20202;-71
2022/11/10 05:59:16;;;;;;;14.30;7.33;;;8.40;99.90;;;;;;8316522;28;20214;-69
2022/11/10 06:03:18;;;;;;;13.90;7.57;;;8.50;99.90;;;;;;8319508;28;20183;-71
2022/11/10 06:07:19;;;;;;;10.10;7.37;;;8.60;99.90;;;;;;8325339;28;20681;-72
2022/11/10 06:11:20;;;;;;;10.20;7.80;;;8.60;99.90;;;;;;8318951;28;20198;-71
2022/11/10 06:15:21;;;;;;;10.07;6.83;;;8.50;99.90;;;;;;8316699;28;20183;-71
2022/11/10 06:19:22;;;;;;;10.83;7.60;;;8.50;99.90;;;;;;8317243;28;20204;-72
2022/11/10 06:23:23;;;;;;;9.80;6.93;;;8.60;99.90;;;;;;8316234;28;20233;-71
2022/11/10 06:27:23;;;;;;;10.37;6.83;;;8.70;99.90;;;;;;8320381;28;20206;-71
2022/11/10 06:31:24;;;;;;;10.00;6.87;;;8.70;99.90;;;;;;8313730;28;20180;-71
2022/11/10 06:35:26;;;;;;;10.60;6.80;;;8.80;99.90;;;;;;8317178;28;20198;-71
2022/11/10 06:39:27;;;;;;;11.53;6.87;;;8.90;99.90;;;;;;8315447;28;20186;-70
2022/11/10 06:43:27;;;;;;;8.57;5.97;;;8.90;99.90;;;;;;8321224;28;20269;-71
2022/11/10 06:47:28;;;;;;;9.93;7.17;;;8.90;99.90;;;;;;8317481;28;20207;-71
2022/11/10 06:51:29;;;;;;;10.43;6.40;;;8.90;99.90;;;;;;8318110;28;20180;-71
2022/11/10 06:55:30;;;;;;;9.23;6.10;;;9.00;99.90;;;;;;8319386;28;20185;-71
2022/11/10 06:59:31;;;;;;;9.67;6.50;;;9.00;99.90;;;;;;8312201;28;20207;-71
2022/11/10 07:03:31;;;;;;;10.53;5.80;;;9.10;99.90;;;;;;8321638;28;20216;-71
2022/11/10 07:07:32;;;;;;;8.33;5.77;;;9.20;99.90;;;;;;8315308;28;20293;-71
2022/11/10 07:11:33;;;;;;;8.47;5.80;;;9.30;99.90;;;;;;8317099;28;20232;-71
2022/11/10 07:15:35;;;;;;;8.60;6.03;;;9.50;99.90;;;;;;8306032;28;20180;-71
2022/11/10 07:19:35;;;;;;;8.43;5.60;;;9.60;99.90;;;;;;8317950;28;20208;-70
2022/11/10 07:23:36;;;;;;;10.20;6.33;;;9.70;99.90;;;;;;8318702;28;20191;-70
2022/11/10 07:27:37;;;;;;;7.70;5.73;;;9.80;99.90;;;;;;8315798;28;20213;-71
2022/11/10 07:31:38;;;;;;;8.47;5.80;;;9.90;99.90;;;;;;8316035;28;20186;-70
2022/11/10 07:35:39;;;;;;;6.50;4.90;;;10.10;99.90;;;;;;8318440;28;20185;-71
2022/11/10 07:39:40;;;;;;;6.43;4.90;;;10.20;99.90;;;;;;8311392;28;20716;-70
2022/11/10 07:43:41;;;;;;;8.93;5.00;;;10.30;99.90;;;;;;8314427;28;20195;-71
2022/11/10 07:47:41;;;;;;;8.47;5.40;;;10.30;99.90;;;;;;8314649;28;20205;-71
2022/11/10 07:51:42;;;;;;;8.73;5.03;;;10.40;99.90;;;;;;8314009;28;20212;-70
2022/11/10 07:55:44;;;;;;;8.90;5.30;;;10.50;99.90;;;;;;8315972;28;20310;-71
2022/11/10 07:59:45;;;;;;;9.33;5.27;;;10.50;99.90;;;;;;8310574;28;20205;-71
2022/11/10 08:03:46;;;;;;;8.23;5.10;;;10.60;99.90;;;;;;8312307;28;20204;-69
2022/11/10 08:07:46;;;;;;;8.43;4.67;;;10.70;99.90;;;;;;8319363;28;20251;-71
2022/11/10 08:11:47;;;;;;;5.80;4.30;;;10.80;99.90;;;;;;8314544;28;20175;-70
2022/11/10 08:15:48;;;;;;;8.10;4.40;;;11.00;99.90;;;;;;8313793;28;20503;-72
2022/11/10 08:19:49;;;;;;;6.17;3.83;;;11.20;99.90;;;;;;8316030;28;20184;-70
2022/11/10 08:23:50;;;;;;;5.80;3.77;;;11.50;99.90;;;;;;8316305;28;20185;-70
2022/11/10 08:27:57;;;;;;;4.73;3.33;;;11.70;99.90;;;;;;8314568;28;20293;-71
2022/11/10 08:31:58;;;;;;;6.90;2.90;;;11.70;99.90;;;;;;8311974;28;20182;-71
2022/11/10 08:36:01;;;;;;;5.93;2.47;;;11.80;99.90;;;;;;8314346;28;20189;-70
2022/11/10 08:40:03;;;;;;;4.57;2.50;;;11.80;99.90;;;;;;8313231;28;20577;-70
2022/11/10 08:44:04;;;;;;;4.43;2.37;;;11.70;46.50;;;;;;8313248;28;20374;-71
2022/11/10 08:48:10;;;;;;;4.93;2.53;;;11.60;99.90;;;;;;8314347;28;20199;-69
2022/11/10 08:52:12;;;;;;;3.87;2.30;;;11.80;99.90;;;;;;8313756;28;20246;-73
2022/11/10 08:56:13;;;;;;;5.63;2.70;;;12.00;1.00;;;;;;8310683;28;20189;-69
2022/11/10 09:00:15;;;;;;;6.43;2.27;;;12.20;1.00;;;;;;8308747;28;20206;-71
2022/11/10 09:04:16;;;;;;;6.67;2.60;;;12.40;1.00;;;;;;8310917;28;20305;-69
2022/11/10 09:08:17;;;;;;;5.27;2.30;;;12.40;99.90;;;;;;8315852;28;20206;-70
2022/11/10 09:12:18;;;;;;;4.43;1.87;;;12.40;99.90;;;;;;8320452;28;20255;-70
2022/11/10 09:16:19;;;;;;;7.27;1.70;;;12.20;99.90;;;;;;8318662;28;20178;-70
2022/11/10 09:20:19;;;;;;;3.33;1.40;;;12.30;99.90;;;;;;8318018;28;20199;-70
2022/11/10 09:24:20;;;;;;;4.97;1.33;;;12.40;99.90;;;;;;8318107;28;20186;-70
2022/11/10 09:28:22;;;;;;;6.00;1.60;;;12.40;99.90;;;;;;8315330;28;20302;-71
2022/11/10 09:32:22;;;;;;;4.60;1.30;;;12.70;1.00;;;;;;8316713;28;20186;-70
2022/11/10 09:36:23;;;;;;;4.87;1.23;;;12.90;3.70;;;;;;8315919;28;20243;-69
2022/11/10 09:40:40;;;;;;;2.47;1.20;;;12.90;1.00;;;;;;8315881;28;20198;-71
2022/11/10 09:44:50;;;;;;;3.00;1.20;;;12.70;1.00;;;;;;8315265;28;20179;-69
2022/11/10 09:48:57;;;;;;;3.97;1.40;;;12.60;1.00;;;;;;8308674;28;20210;-69
2022/11/10 09:53:00;;;;;;;5.40;1.23;;;12.40;32.30;;;;;;8320713;28;20179;-69
2022/11/10 09:57:05;;;;;;;4.70;1.33;;;12.30;99.90;;;;;;8318939;28;20293;-70
2022/11/10 10:01:31;;;;;;;7.17;1.73;;;12.40;25.70;;;;;;8318466;28;20187;-69
2022/11/10 10:05:47;;;;;;;4.57;1.30;;;12.50;1.00;;;;;;8313233;28;20277;-70
2022/11/10 10:10:14;;;;;;;9.37;1.87;;;12.60;1.00;;;;;;8317272;28;20426;-70
2022/11/10 10:14:49;;;;;;;2.07;1.00;;;12.70;1.00;;;;;;8320716;28;20204;-70
2022/11/10 10:19:19;;;;;;;3.77;1.20;;;12.90;1.00;;;;;;8318140;28;20190;-71
2022/11/10 10:23:42;;;;;;;5.17;1.30;;;13.10;1.00;;;;;;8313325;28;20196;-71
2022/11/10 10:27:45;;;;;;;9.33;1.40;;;13.20;1.00;;;;;;8322133;28;20205;-69
2022/11/10 10:31:51;;;;;;;6.33;2.00;;;13.10;99.90;;;;;;8317032;28;20179;-70
2022/11/10 10:35:52;;;;;;;4.17;1.43;;;13.00;1.00;;;;;;8314273;28;20206;-71
2022/11/10 10:39:54;;;;;;;5.80;1.33;;;13.10;99.90;;;;;;8317459;28;20191;-70
2022/11/10 10:43:58;;;;;;;3.00;1.10;;;13.30;99.90;;;;;;8317357;28;20667;-70
2022/11/10 10:48:00;;;;;;;2.90;1.20;;;13.50;99.90;;;;;;8306308;28;20244;-70
2022/11/10 10:52:12;;;;;;;4.20;1.30;;;13.70;99.90;;;;;;8315339;28;20204;-69
2022/11/10 10:56:20;;;;;;;4.27;1.30;;;13.90;99.90;;;;;;8314320;28;20190;-69
2022/11/10 11:00:22;;;;;;;4.70;1.20;;;13.90;99.90;;;;;;8303877;28;20238;-73
2022/11/10 11:04:33;;;;;;;6.57;1.20;;;14.00;99.90;;;;;;8315609;28;20185;-70
2022/11/10 11:08:34;;;;;;;5.00;1.10;;;14.30;99.90;;;;;;8306832;28;20602;-71
2022/11/10 11:12:34;;;;;;;4.73;1.20;;;14.20;99.90;;;;;;8316086;28;20535;-68
2022/11/10 11:16:55;;;;;;;3.20;1.03;;;14.20;99.90;;;;;;8314810;28;20186;-70
2022/11/10 11:21:33;;;;;;;4.03;1.37;;;14.40;99.90;;;;;;8313854;28;20175;-70
2022/11/10 11:25:40;;;;;;;5.60;1.10;;;14.60;99.90;;;;;;8312501;28;20281;-69
2022/11/10 11:29:51;;;;;;;2.93;1.10;;;14.40;99.90;;;;;;8310152;28;20206;-70
2022/11/10 11:34:05;;;;;;;2.93;1.07;;;14.30;99.90;;;;;;8312932;28;20193;-70
2022/11/10 11:38:19;;;;;;;3.50;0.80;;;14.00;99.90;;;;;;8312539;28;20270;-71
2022/11/10 11:42:28;;;;;;;2.70;0.73;;;13.80;99.90;;;;;;8305407;28;20188;-70
2022/11/10 11:47:18;;;;;;;3.00;0.90;;;13.50;99.90;;;;;;8307418;28;20187;-70
2022/11/10 11:51:30;;;;;;;3.77;0.93;;;13.30;99.90;;;;;;8306346;28;20236;-69
2022/11/10 11:55:40;;;;;;;2.83;0.90;;;13.20;99.90;;;;;;8314788;28;20182;-71
2022/11/10 11:59:59;;;;;;;3.43;1.10;;;13.20;99.90;;;;;;8314538;28;20209;-71
2022/11/10 12:04:18;;;;;;;4.37;1.37;;;13.20;99.90;;;;;;8320547;28;20213;-70
2022/11/10 12:08:28;;;;;;;6.43;1.13;;;13.20;99.90;;;;;;8314544;28;20313;-71
2022/11/10 12:12:35;;;;;;;5.13;1.00;;;13.30;99.90;;;;;;8312693;28;20214;-71
2022/11/10 12:16:38;;;;;;;4.10;0.90;;;13.40;99.90;;;;;;8302698;28;20209;-70
2022/11/10 12:21:08;;;;;;;3.37;0.90;;;13.80;99.90;;;;;;8316460;28;20205;-71
2022/11/10 12:25:15;;;;;;;3.23;0.77;;;13.90;99.90;;;;;;8315138;28;20187;-70
2022/11/10 12:29:42;;;;;;;4.67;0.80;;;14.20;99.90;;;;;;8314763;28;20205;-70
2022/11/10 12:33:56;;;;;;;4.50;1.30;;;14.00;99.90;;;;;;8319773;28;20281;-70
2022/11/10 12:38:18;;;;;;;3.73;1.10;;;13.80;99.90;;;;;;8314767;28;20199;-71
2022/11/10 12:42:27;;;;;;;4.63;0.90;;;13.80;99.90;;;;;;8318928;28;20178;-70
2022/11/10 12:46:27;;;;;;;5.43;1.20;;;13.80;99.90;;;;;;8320901;28;20186;-71
2022/11/10 12:51:00;;;;;;;4.13;0.93;;;13.90;99.90;;;;;;8320798;28;20216;-71
2022/11/10 12:55:01;;;;;;;2.60;1.20;;;13.90;99.90;;;;;;8318171;28;20264;-71
2022/11/10 12:59:21;;;;;;;1.87;1.00;;;13.80;99.90;;;;;;8318119;28;20519;-70
2022/11/10 13:03:37;;;;;;;3.97;1.13;;;13.70;99.90;;;;;;8316947;28;20188;-70
2022/11/10 13:07:42;;;;;;;4.60;1.27;;;13.60;99.90;;;;;;8317807;28;20215;-70
2022/11/10 13:12:04;;;;;;;4.33;1.93;;;13.60;99.90;;;;;;8318182;28;20214;-71
2022/11/10 13:16:09;;;;;;;3.17;1.10;;;13.60;99.90;;;;;;8319909;28;20190;-70
2022/11/10 13:20:39;;;;;;;4.60;1.20;;;13.60;99.90;;;;;;8318928;28;20186;-70
2022/11/10 13:24:41;;;;;;;2.67;1.07;;;13.70;99.90;;;;;;8318792;28;20186;-70
2022/11/10 13:28:45;;;;;;;5.90;1.03;;;13.90;99.90;;;;;;8318896;28;20216;-71
2022/11/10 13:32:46;;;;;;;4.93;0.93;;;13.80;99.90;;;;;;8321847;28;20197;-71
2022/11/10 13:36:48;;;;;;;3.20;1.00;;;13.60;99.90;;;;;;8319886;28;20182;-69
2022/11/10 13:40:49;;;;;;;4.93;1.00;;;13.50;99.90;;;;;;8318381;28;20246;-71
2022/11/10 13:44:52;;;;;;;2.23;0.80;;;13.30;99.90;;;;;;8320351;28;20175;-69
2022/11/10 13:49:12;;;;;;;4.83;1.10;;;13.20;99.90;;;;;;8320428;28;20260;-70
2022/11/10 13:53:37;;;;;;;3.97;0.80;;;13.20;99.90;;;;;;8315051;28;20190;-70
2022/11/10 13:57:41;;;;;;;5.13;1.00;;;13.10;99.90;;;;;;8317578;28;20210;-70
2022/11/10 14:01:42;;;;;;;2.33;0.90;;;13.00;99.90;;;;;;8312808;28;20209;-70
2022/11/10 14:06:03;;;;;;;2.33;0.80;;;12.90;99.90;;;;;;8316496;28;20653;-70
2022/11/10 14:10:11;;;;;;;4.30;1.20;;;12.80;99.90;;;;;;8321661;28;20209;-70
2022/11/10 14:14:50;;;;;;;4.87;1.10;;;12.80;99.90;;;;;;8312199;28;20191;-70
2022/11/10 14:19:22;;;;;;;2.40;0.90;;;12.70;99.90;;;;;;8318099;28;20251;-69
2022/11/10 14:23:25;;;;;;;5.17;1.37;;;12.60;99.90;;;;;;8322450;28;20202;-70
2022/11/10 14:27:30;;;;;;;4.77;1.13;;;12.50;99.90;;;;;;8316521;28;20206;-70
2022/11/10 14:31:34;;;;;;;3.70;0.97;;;12.30;99.90;;;;;;8320294;28;20249;-70
2022/11/10 14:35:48;;;;;;;2.87;1.10;;;12.20;99.90;;;;;;8317648;28;20182;-71
2022/11/10 14:39:55;;;;;;;4.87;1.17;;;12.00;1.00;;;;;;8317736;28;20201;-70
2022/11/10 14:44:04;;;;;;;1.77;0.70;;;11.80;1.00;;;;;;8319612;28;20210;-70
2022/11/10 14:48:18;;;;;;;3.00;1.00;;;11.60;1.00;;;;;;8312553;28;20211;-70
2022/11/10 14:52:19;;;;;;;1.43;1.03;;;11.40;5.30;;;;;;8315785;28;20234;-71
2022/11/10 14:56:31;;;;;;;4.83;1.07;;;11.20;80.10;;;;;;8317295;28;20174;-72
2022/11/10 15:00:35;;;;;;;3.27;1.30;;;11.10;99.90;;;;;;8303699;28;20187;-68
2022/11/10 15:04:36;;;;;;;3.03;1.10;;;11.00;99.90;;;;;;8314867;28;20214;-70
2022/11/10 15:08:38;;;;;;;5.17;1.50;;;10.80;99.90;;;;;;8315335;28;20225;-70
2022/11/10 15:12:39;;;;;;;3.67;1.40;;;10.70;99.90;;;;;;8320010;28;20183;-70
2022/11/10 15:17:02;;;;;;;5.07;1.60;;;10.50;99.90;;;;;;8318157;28;20214;-70
2022/11/10 15:21:10;;;;;;;4.30;1.53;;;10.40;1.00;;;;;;8314584;28;20272;-70
2022/11/10 15:25:16;;;;;;;2.47;1.13;;;10.10;1.00;;;;;;8317676;28;20189;-70
2022/11/10 15:29:21;;;;;;;3.60;1.30;;;9.90;1.00;;;;;;8316290;28;20213;-69
2022/11/10 15:33:27;;;;;;;5.67;1.33;;;9.70;93.30;;;;;;8316368;28;20190;-70
2022/11/10 15:37:30;;;;;;;2.87;1.50;;;9.50;99.90;;;;;;8307682;28;20197;-69
2022/11/10 15:41:33;;;;;;;4.17;1.70;;;9.40;99.90;;;;;;8317327;28;20272;-70
2022/11/10 15:45:34;;;;;;;2.80;1.30;;;9.20;1.00;;;;;;8316792;28;20180;-71
2022/11/10 15:49:37;;;;;;;2.67;1.60;;;9.10;99.90;;;;;;8323816;28;20220;-70
2022/11/10 15:53:43;;;;;;;3.93;1.67;;;9.10;99.90;;;;;;8316310;28;20187;-70
2022/11/10 15:57:44;;;;;;;3.53;1.67;;;9.00;99.90;;;;;;8312466;28;20234;-70
2022/11/10 16:01:45;;;;;;;2.53;1.50;;;8.90;99.90;;;;;;8311350;28;20205;-71
2022/11/10 16:05:47;;;;;;;4.73;2.03;;;8.90;1.00;;;;;;8315945;28;20252;-72
2022/11/10 16:09:48;;;;;;;3.43;1.67;;;9.00;1.00;;;;;;8314037;28;20209;-70
2022/11/10 16:13:50;;;;;;;4.43;1.50;;;9.00;56.40;;;;;;8316057;28;20177;-70
2022/11/10 16:17:51;;;;;;;5.30;1.83;;;9.10;1.00;;;;;;8313532;28;20212;-70
2022/11/10 16:21:52;;;;;;;3.80;1.80;;;9.20;1.00;;;;;;8311883;28;20184;-71
2022/11/10 16:25:55;;;;;;;3.33;1.60;;;9.20;99.90;;;;;;8311923;28;20198;-70
2022/11/10 16:29:56;;;;;;;4.53;1.80;;;9.20;99.90;;;;;;8313881;28;20302;-70
2022/11/10 16:33:57;;;;;;;3.30;1.80;;;9.20;99.90;;;;;;8315979;28;20175;-70
2022/11/10 16:37:57;;;;;;;4.83;1.90;;;9.30;99.90;;;;;;8312899;28;20536;-71
2022/11/10 16:41:58;;;;;;;3.33;1.73;;;9.40;99.90;;;;;;8316514;28;20193;-70
2022/11/10 16:46:02;;;;;;;8.17;2.20;;;9.40;99.90;;;;;;8312010;28;20185;-71
2022/11/10 16:50:09;;;;;;;7.40;2.70;;;9.50;99.90;;;;;;8322682;28;20300;-71
2022/11/10 16:54:10;;;;;;;5.50;1.73;;;9.60;1.00;;;;;;8318257;28;20190;-70
2022/11/10 16:58:11;;;;;;;4.63;2.40;;;9.70;1.00;;;;;;8314515;28;20221;-70
2022/11/10 17:02:34;;;;;;;8.90;4.10;;;9.70;1.00;;;;;;8314503;28;20188;-71
2022/11/10 17:06:35;;;;;;;8.27;3.83;;;9.70;1.00;;;;;;8318351;28;20228;-70
2022/11/10 17:10:36;;;;;;;8.47;3.63;;;9.70;1.00;;;;;;8315225;28;20213;-71
2022/11/10 17:14:37;;;;;;;7.53;3.37;;;9.70;1.00;;;;;;8312769;28;20188;-70
2022/11/10 17:18:38;;;;;;;7.67;3.57;;;9.60;1.00;;;;;;8308124;28;20216;-71
2022/11/10 17:22:39;;;;;;;11.37;4.77;;;9.60;1.00;;;;;;8310819;28;20246;-70
2022/11/10 17:26:40;;;;;;;6.80;3.90;;;9.60;1.00;;;;;;8311139;28;20276;-71
2022/11/10 17:30:42;;;;;;;7.50;4.47;;;9.40;1.00;;;;;;8317856;28;20437;-71
2022/11/10 17:34:43;;;;;;;10.83;4.57;;;9.20;1.00;;;;;;8317327;28;20184;-70
2022/11/10 17:38:44;;;;;;;10.73;4.97;;;9.00;15.70;;;;;;8318925;28;20197;-70
2022/11/10 17:42:46;;;;;;;9.57;6.80;;;8.90;99.90;;;;;;8322379;28;20195;-71
2022/11/10 17:46:47;;;;;;;9.57;6.37;;;8.70;99.90;;;;;;8322284;28;20214;-70
2022/11/10 17:50:48;;;;;;;9.27;6.70;;;8.60;1.00;;;;;;8319439;28;20211;-70
2022/11/10 17:54:48;;;;;;;11.67;7.07;;;8.50;1.00;;;;;;8326125;28;20183;-70
2022/11/10 17:58:52;;;;;;;12.30;7.30;;;8.50;1.00;;;;;;8319229;28;20229;-70
2022/11/10 18:02:53;;;;;;;14.97;8.43;;;8.40;1.00;;;;;;8321904;28;20179;-72
2022/11/10 18:06:55;;;;;;;12.83;8.03;;;8.40;99.90;;;;;;8318763;28;20237;-69
2022/11/10 18:10:59;;;;;;;11.57;7.47;;;8.40;1.00;;;;;;8318983;28;20199;-71
2022/11/10 18:15:00;;;;;;;13.13;7.77;;;8.40;27.50;;;;;;8317566;28;20871;-71
2022/11/10 18:19:00;;;;;;;13.33;8.73;;;8.40;99.90;;;;;;8314722;28;20543;-71
2022/11/10 18:23:01;;;;;;;16.50;9.57;;;8.40;98.00;;;;;;8315129;28;20261;-70
2022/11/10 18:27:02;;;;;;;16.63;9.40;;;8.40;99.90;;;;;;8315681;28;20179;-70
2022/11/10 18:31:08;;;;;;;20.93;10.50;;;8.50;1.00;;;;;;8316977;28;20183;-70
2022/11/10 18:35:09;;;;;;;17.60;10.03;;;8.40;27.70;;;;;;8315436;28;20228;-70
2022/11/10 18:39:10;;;;;;;16.90;9.93;;;8.40;1.00;;;;;;8316080;28;20182;-70
2022/11/10 18:43:11;;;;;;;15.93;10.37;;;8.40;1.00;;;;;;8317511;28;20181;-70
2022/11/10 18:47:12;;;;;;;18.27;9.60;;;8.30;1.00;;;;;;8316124;28;20186;-71
2022/11/10 18:51:14;;;;;;;19.53;10.20;;;8.30;99.90;;;;;;8315808;28;20178;-70
2022/11/10 18:55:16;;;;;;;20.70;11.07;;;8.20;1.00;;;;;;8314510;28;20248;-72
2022/11/10 18:59:17;;;;;;;20.97;11.10;;;8.20;99.90;;;;;;8319334;28;20201;-70
2022/11/10 19:03:18;;;;;;;19.33;11.20;;;8.20;1.00;;;;;;8313044;28;20277;-70
2022/11/10 19:07:18;;;;;;;18.63;10.37;;;8.20;99.90;;;;;;8314455;28;20733;-70
2022/11/10 19:11:19;;;;;;;17.07;10.17;;;8.10;99.90;;;;;;8313967;28;20174;-69
2022/11/10 19:15:20;;;;;;;18.33;10.97;;;8.00;99.90;;;;;;8315683;28;20179;-70
2022/11/10 19:19:21;;;;;;;17.40;9.97;;;8.00;99.90;;;;;;8316881;28;20797;-70
2022/11/10 19:23:22;;;;;;;16.57;10.10;;;8.00;1.00;;;;;;8313178;28;20214;-70
2022/11/10 19:27:23;;;;;;;17.97;9.40;;;8.00;1.00;;;;;;8316627;28;20202;-70
2022/11/10 19:31:24;;;;;;;18.87;9.63;;;7.90;1.00;;;;;;8314659;28;20183;-69
2022/11/10 19:35:25;;;;;;;16.03;9.70;;;7.90;5.80;;;;;;8314928;28;20190;-70
2022/11/10 19:39:26;;;;;;;23.93;12.80;;;7.80;99.90;;;;;;8316168;28;20190;-68
2022/11/10 19:43:29;;;;;;;21.20;12.80;;;7.80;99.90;;;;;;8312904;28;20273;-71
2022/11/10 19:47:30;;;;;;;22.47;13.37;;;7.80;99.90;;;;;;8316346;28;20202;-69
2022/11/10 19:51:32;;;;;;;20.47;12.40;;;7.80;99.90;;;;;;8316662;28;20183;-69
2022/11/10 19:55:34;;;;;;;18.90;12.70;;;7.80;99.90;;;;;;8322654;28;20190;-70
2022/11/10 19:59:35;;;;;;;18.27;11.80;;;7.70;99.90;;;;;;8317457;28;20216;-70
2022/11/10 20:03:36;;;;;;;16.80;11.33;;;7.70;99.90;;;;;;8319420;28;20186;-69
2022/11/10 20:11:56;;;;;;;23.90;11.93;;;7.70;99.90;;;;;;8317017;28;20256;-69
2022/11/10 20:16:02;;;;;;;25.80;11.73;;;7.70;99.90;;;;;;8314288;28;20210;-70
2022/11/10 20:20:03;;;;;;;19.07;10.93;;;7.70;99.90;;;;;;8314104;28;20187;-70
2022/11/10 20:24:04;;;;;;;18.63;11.47;;;7.70;99.90;;;;;;8316438;28;20213;-70
2022/11/10 20:28:05;;;;;;;21.27;10.90;;;7.70;99.90;;;;;;8315364;28;20202;-69
2022/11/10 20:32:06;;;;;;;17.13;10.10;;;7.60;99.90;;;;;;8316029;28;20193;-70
2022/11/10 20:36:20;;;;;;;18.13;10.97;;;7.60;99.90;;;;;;8316018;28;20186;-69
2022/11/10 20:40:21;;;;;;;15.40;9.93;;;7.60;99.90;;;;;;8314275;28;20186;-70
2022/11/10 20:44:22;;;;;;;18.53;9.67;;;7.50;99.90;;;;;;8317084;28;20509;-70
2022/11/10 20:48:23;;;;;;;14.67;8.80;;;7.50;99.90;;;;;;8321377;28;20221;-71
2022/11/10 20:52:24;;;;;;;17.07;9.60;;;7.50;99.90;;;;;;8314099;28;20183;-70
2022/11/10 20:56:25;;;;;;;15.93;9.10;;;7.50;99.90;;;;;;8313488;28;20217;-69
2022/11/10 21:00:26;;;;;;;16.60;8.77;;;7.50;99.90;;;;;;8313548;28;20210;-69
2022/11/10 21:04:27;;;;;;;15.00;7.90;;;7.50;99.90;;;;;;8320371;28;20194;-70
2022/11/10 21:08:28;;;;;;;12.83;7.80;;;7.50;99.90;;;;;;8317025;28;20226;-70
2022/11/10 21:12:48;;;;;;;14.43;7.60;;;7.40;99.90;;;;;;8316715;28;20183;-70
2022/11/10 21:16:48;;;;;;;10.77;6.93;;;7.50;99.90;;;;;;8316336;28;20198;-70
2022/11/10 21:20:50;;;;;;;11.87;6.80;;;7.50;99.90;;;;;;8335561;28;20217;-70
2022/11/10 21:24:51;;;;;;;14.87;7.00;;;7.50;99.90;;;;;;8318811;28;20240;-70
2022/11/10 21:28:52;;;;;;;9.23;6.13;;;7.40;99.90;;;;;;8315359;28;20206;-70
2022/11/10 21:32:53;;;;;;;12.47;6.27;;;7.40;99.90;;;;;;8320072;28;20252;-70
2022/11/10 21:36:54;;;;;;;9.77;6.33;;;7.40;99.90;;;;;;8319965;28;20190;-70